Time;durP1;ratioP1;P1;durP2;ratioP2;P2;SDS_P1;SDS_P2;PMS_P1;PMS_P2;Temp;Humidity;BMP_temperature;BMP_pressure;BME280_temperature;BME280_humidity;BME280_pressure;Samples;Min_cycle;Max_cycle;Signal;HPM_P1;HPM_P2
2023/03/31 00:02:22;;;;;;;2.95;1.80;;;;;;;10.45;65.23;98731.03;5087848;28;20052;-73
2023/03/31 00:04:52;;;;;;;3.20;1.98;;;;;;;10.45;65.21;98746.06;5086962;28;20036;-72
2023/03/31 00:07:23;;;;;;;4.68;2.35;;;;;;;10.41;65.24;98744.56;5088134;28;20040;-73
2023/03/31 00:09:53;;;;;;;2.90;1.80;;;;;;;10.39;65.06;98747.31;5087899;28;20036;-73
2023/03/31 00:12:21;;;;;;;3.08;1.85;;;;;;;7.01;65.03;98176.47;5086795;28;20078;-73
2023/03/31 00:14:48;;;;;;;3.83;1.60;;;;;;;10.14;64.99;98713.59;5087847;28;20280;-72
2023/03/31 00:17:17;;;;;;;3.42;2.22;;;;;;;10.35;65.04;98751.13;5086653;28;20040;-72
2023/03/31 00:19:44;;;;;;;3.20;2.03;;;;;;;10.33;65.20;98750.38;5087679;28;20033;-72
2023/03/31 00:22:10;;;;;;;3.88;2.38;;;;;;;10.32;65.24;98735.41;5086606;28;20071;-71
2023/03/31 00:24:37;;;;;;;3.75;1.90;;;;;;;10.30;64.96;98739.97;5087856;28;20108;-72
2023/03/31 00:27:05;;;;;;;4.30;1.83;;;;;;;10.28;65.18;98734.75;5087296;28;20054;-72
2023/03/31 00:29:34;;;;;;;3.67;1.67;;;;;;;10.26;65.15;98754.34;5087202;28;20036;-72
2023/03/31 00:32:01;;;;;;;3.35;1.98;;;;;;;9.93;65.08;98684.03;5086344;28;20313;-72
2023/03/31 00:34:29;;;;;;;3.13;1.98;;;;;;;10.22;65.09;98732.50;5087172;28;20046;-72
2023/03/31 00:36:57;;;;;;;4.28;2.35;;;;;;;10.20;65.28;98736.19;5086276;28;20037;-72
2023/03/31 00:39:24;;;;;;;3.88;1.88;;;;;;;10.18;65.33;98725.69;5087027;28;20104;-72
2023/03/31 00:41:51;;;;;;;3.85;2.03;;;;;;;10.16;65.23;98724.94;5086968;28;20274;-72
2023/03/31 00:44:21;;;;;;;2.85;2.08;;;;;;;10.15;65.21;98725.91;5086883;28;20041;-71
2023/03/31 00:46:52;;;;;;;3.67;1.88;;;;;;;10.13;65.12;98717.19;5087209;28;20032;-72
2023/03/31 00:49:25;;;;;;;3.15;1.95;;;;;;;10.12;65.21;98718.16;5086986;28;20047;-72
2023/03/31 00:51:57;;;;;;;2.83;1.75;;;;;;;10.11;64.96;98712.94;5086851;28;20032;-71
2023/03/31 00:54:26;;;;;;;3.00;1.90;;;;;;;10.10;65.25;98706.81;5085865;28;20050;-72
2023/03/31 00:57:01;;;;;;;2.60;1.80;;;;;;;10.09;65.33;98704.25;5086687;28;20059;-71
2023/03/31 00:59:31;;;;;;;3.05;1.73;;;;;;;10.06;65.25;98702.66;5085990;28;20235;-72
2023/03/31 01:02:01;;;;;;;2.83;1.85;;;;;;;10.07;65.24;98703.50;5085666;28;20166;-72
2023/03/31 01:04:32;;;;;;;8.23;2.55;;;;;;;9.69;65.35;98645.91;5086936;28;20062;-72
2023/03/31 01:07:08;;;;;;;4.07;2.65;;;;;;;10.05;65.42;98703.59;5085883;28;20208;-72
2023/03/31 01:09:37;;;;;;;2.97;2.13;;;;;;;10.06;65.34;98697.34;5086456;28;20289;-72
2023/03/31 01:12:07;;;;;;;3.45;2.28;;;;;;;10.05;65.25;98698.31;5085590;28;20109;-72
2023/03/31 01:14:34;;;;;;;3.42;2.28;;;;;;;10.07;65.26;98692.91;5086274;28;20040;-71
2023/03/31 01:17:01;;;;;;;3.80;2.30;;;;;;;10.04;65.39;98688.66;5086335;28;20036;-72
2023/03/31 01:19:41;;;;;;;4.03;2.47;;;;;;;10.01;65.54;98678.28;5085342;28;20040;-71
2023/03/31 01:22:38;;;;;;;3.33;2.25;;;;;;;10.02;65.49;98674.66;5086423;28;20070;-71
2023/03/31 01:25:37;;;;;;;3.50;2.50;;;;;;;10.01;65.38;98680.91;5086355;28;20112;-71
2023/03/31 01:28:23;;;;;;;6.20;2.95;;;;;;;10.00;65.47;98675.72;5033563;28;20111;-71
2023/03/31 01:31:26;;;;;;;4.32;2.80;;;;;;;9.74;65.58;98635.88;5086205;28;20036;-72
2023/03/31 01:34:45;;;;;;;6.55;3.42;;;;;;;9.97;65.63;98667.97;5085910;28;20036;-71
2023/03/31 01:37:56;;;;;;;4.10;3.10;;;;;;;9.95;65.81;98673.38;5086188;28;20044;-71
2023/03/31 01:40:53;;;;;;;3.95;2.67;;;;;;;9.93;65.79;98670.81;5085721;28;20066;-72
2023/03/31 01:43:26;;;;;;;5.13;2.60;;;;;;;9.91;65.97;98671.84;5086084;28;20037;-71
2023/03/31 01:46:00;;;;;;;4.70;3.17;;;;;;;9.91;65.96;98683.28;5085771;28;20355;-71
2023/03/31 01:48:40;;;;;;;4.38;3.22;;;;;;;9.92;66.04;98676.19;5085198;28;20284;-71
2023/03/31 01:51:13;;;;;;;6.18;3.05;;;;;;;9.74;65.74;98633.22;5085987;28;20063;-71
2023/03/31 01:53:48;;;;;;;5.20;3.00;;;;;;;9.94;65.97;98661.06;5085067;28;20349;-71
2023/03/31 01:56:22;;;;;;;5.47;3.05;;;;;;;9.94;65.88;98666.38;5084748;28;20040;-72
2023/03/31 01:58:53;;;;;;;3.88;2.65;;;;;;;9.94;65.82;98661.94;5085611;28;20284;-71
2023/03/31 02:01:25;;;;;;;5.93;3.22;;;;;;;9.96;65.65;98653.88;5084734;28;20296;-71
2023/03/31 02:03:56;;;;;;;3.88;2.40;;;;;;;9.75;65.54;98626.13;5084721;28;20040;-71
2023/03/31 02:06:27;;;;;;;4.68;2.63;;;;;;;9.18;65.60;98523.84;5085593;28;20048;-71
2023/03/31 02:08:57;;;;;;;3.70;2.50;;;;;;;9.94;65.83;98646.03;5084570;28;20040;-71
2023/03/31 02:11:30;;;;;;;3.95;3.15;;;;;;;9.94;65.86;98645.19;5085832;28;20045;-71
2023/03/31 02:14:01;;;;;;;5.53;3.22;;;;;;;9.63;65.68;98596.00;5085465;28;20040;-72
2023/03/31 02:16:31;;;;;;;5.07;3.47;;;;;;;9.93;65.46;98639.03;5085698;28;20124;-71
2023/03/31 02:19:02;;;;;;;6.15;2.80;;;;;;;9.91;65.76;98640.94;5084593;28;20048;-71
2023/03/31 02:21:31;;;;;;;6.05;3.13;;;;;;;9.47;65.76;98574.13;5085956;28;20111;-71
2023/03/31 02:24:00;;;;;;;3.92;2.60;;;;;;;9.90;65.87;98631.31;5085112;28;20087;-71
2023/03/31 02:26:31;;;;;;;4.20;2.97;;;;;;;9.89;65.71;98629.59;5084475;28;20044;-71
2023/03/31 02:28:58;;;;;;;5.82;3.00;;;;;;;9.35;65.62;98551.06;5085330;28;20048;-71
2023/03/31 02:31:30;;;;;;;4.00;2.78;;;;;;;9.85;65.76;98622.81;5085232;28;20212;-72
2023/03/31 02:33:57;;;;;;;4.25;3.17;;;;;;;9.85;65.76;98622.81;5084407;28;20319;-72
2023/03/31 02:36:24;;;;;;;6.07;4.43;;;;;;;9.85;66.00;98625.44;5085581;28;20052;-72
2023/03/31 02:38:56;;;;;;;14.52;10.02;;;;;;;9.83;66.47;98619.41;5085549;28;20051;-71
2023/03/31 02:41:23;;;;;;;7.70;5.00;;;;;;;9.83;66.31;98615.91;5085089;28;20070;-71
2023/03/31 02:43:51;;;;;;;5.78;3.83;;;;;;;9.61;66.23;98574.09;5084537;28;20040;-72
2023/03/31 02:46:18;;;;;;;5.28;3.38;;;;;;;9.80;66.10;98603.72;5085107;28;20285;-71
2023/03/31 02:48:48;;;;;;;4.72;3.22;;;;;;;9.09;66.18;98486.56;5085688;28;20373;-71
2023/03/31 02:51:45;;;;;;;5.82;3.30;;;;;;;9.71;66.15;98599.03;5084517;28;20051;-72
2023/03/31 02:54:40;;;;;;;4.22;2.92;;;;;;;9.75;66.35;98603.16;5085422;28;20189;-71
2023/03/31 02:57:34;;;;;;;7.03;3.00;;;;;;;9.74;66.30;98593.53;5078128;28;20342;-71
2023/03/31 03:00:09;;;;;;;4.65;2.88;;;;;;;9.73;66.09;98596.28;5085581;28;20039;-71
2023/03/31 03:02:49;;;;;;;5.80;3.30;;;;;;;9.72;66.29;98592.78;5084141;28;20263;-71
2023/03/31 03:05:33;;;;;;;4.75;2.78;;;;;;;9.74;66.19;98600.63;5085354;28;20051;-72
2023/03/31 03:08:13;;;;;;;3.95;2.88;;;;;;;9.72;65.99;98592.78;5087043;28;20111;-72
2023/03/31 03:10:51;;;;;;;4.75;3.03;;;;;;;9.72;66.20;98591.94;5086839;28;20059;-72
2023/03/31 03:13:23;;;;;;;4.10;3.10;;;;;;;9.72;65.96;98595.44;5087404;28;20040;-72
2023/03/31 03:16:00;;;;;;;3.85;3.40;;;;;;;9.71;65.99;98592.88;5086406;28;20056;-72
2023/03/31 03:18:27;;;;;;;3.95;2.92;;;;;;;9.71;66.07;98598.16;5086391;28;20062;-72
2023/03/31 03:20:54;;;;;;;5.43;3.05;;;;;;;9.71;65.98;98591.09;5084355;28;20090;-72
2023/03/31 03:23:21;;;;;;;5.50;3.72;;;;;;;9.71;65.88;98590.22;5085233;28;20041;-73
2023/03/31 03:25:48;;;;;;;6.50;3.42;;;;;;;9.69;65.95;98585.03;5085173;28;20040;-71
2023/03/31 03:28:16;;;;;;;4.97;3.63;;;;;;;9.68;66.00;98582.50;5085026;28;20063;-73
2023/03/31 03:30:43;;;;;;;6.93;3.85;;;;;;;9.66;65.92;98572.00;5087711;28;20174;-72
2023/03/31 03:33:15;;;;;;;8.85;4.07;;;;;;;9.63;65.97;98573.06;5086693;28;20347;-72
2023/03/31 03:35:42;;;;;;;7.65;3.65;;;;;;;9.64;65.97;98568.59;5088731;28;20046;-72
2023/03/31 03:38:09;;;;;;;4.85;3.15;;;;;;;9.40;65.96;98541.91;5088199;28;20181;-72
2023/03/31 03:40:36;;;;;;;6.45;3.15;;;;;;;9.61;65.99;98574.09;5088252;28;20053;-72
2023/03/31 03:43:03;;;;;;;6.43;3.30;;;;;;;9.58;66.04;98566.34;5088409;28;20052;-72
2023/03/31 03:45:29;;;;;;;5.30;3.33;;;;;;;9.57;65.97;98564.66;5088080;28;20044;-72
2023/03/31 03:47:56;;;;;;;5.28;3.72;;;;;;;9.55;65.99;98569.19;5087174;28;20181;-73
2023/03/31 03:50:24;;;;;;;5.35;3.35;;;;;;;9.54;65.96;98567.50;5088428;28;20050;-72
2023/03/31 03:52:51;;;;;;;4.28;3.13;;;;;;;9.52;65.98;98575.53;5087942;28;20040;-72
2023/03/31 03:55:18;;;;;;;4.07;3.60;;;;;;;9.50;66.21;98571.28;5086998;28;20033;-72
2023/03/31 03:57:45;;;;;;;5.03;3.35;;;;;;;9.48;66.05;98576.66;5087796;28;20116;-72
2023/03/31 04:00:12;;;;;;;4.05;3.15;;;;;;;9.48;66.18;98567.88;5087779;28;20047;-73
2023/03/31 04:02:39;;;;;;;5.50;3.30;;;;;;;9.46;66.17;98564.47;5086940;28;20054;-72
2023/03/31 04:05:06;;;;;;;4.97;3.70;;;;;;;9.43;66.19;98562.88;5087560;28;20064;-72
2023/03/31 04:07:34;;;;;;;7.53;3.70;;;;;;;9.44;66.23;98555.78;5087568;28;20048;-72
2023/03/31 04:10:01;;;;;;;5.68;3.67;;;;;;;9.42;66.18;98557.69;5086720;28;20032;-73
2023/03/31 04:12:28;;;;;;;6.10;3.42;;;;;;;9.40;66.18;98544.56;5087210;28;20040;-72
2023/03/31 04:14:55;;;;;;;5.28;3.67;;;;;;;9.36;66.31;98550.09;5086729;28;20040;-73
2023/03/31 04:17:31;;;;;;;6.03;4.05;;;;;;;9.34;66.79;98541.41;5087572;28;20036;-72
2023/03/31 04:20:00;;;;;;;5.43;4.00;;;;;;;9.30;66.56;98536.31;5087426;28;20094;-72
2023/03/31 04:22:33;;;;;;;4.50;3.80;;;;;;;9.28;66.44;98542.66;5086480;28;20326;-72
2023/03/31 04:25:02;;;;;;;6.22;4.22;;;;;;;9.25;66.51;98545.50;5086409;28;20044;-72
2023/03/31 04:27:29;;;;;;;6.53;4.10;;;;;;;9.21;66.52;98536.91;5087742;28;20050;-72
2023/03/31 04:29:56;;;;;;;7.82;3.85;;;;;;;8.63;66.69;98440.06;5087111;28;20052;-73
2023/03/31 04:32:23;;;;;;;6.15;3.90;;;;;;;9.20;66.58;98537.00;5087356;28;20047;-72
2023/03/31 04:34:50;;;;;;;5.30;3.67;;;;;;;9.17;66.63;98537.16;5086222;28;20043;-73
2023/03/31 04:37:17;;;;;;;4.70;3.72;;;;;;;8.89;66.52;98493.09;5087323;28;20048;-72
2023/03/31 04:39:45;;;;;;;4.65;3.80;;;;;;;9.12;66.83;98532.16;5087193;28;20048;-72
2023/03/31 04:42:13;;;;;;;7.82;3.47;;;;;;;9.05;66.78;98520.25;5086049;28;20041;-72
2023/03/31 04:44:40;;;;;;;6.55;3.60;;;;;;;9.05;66.72;98512.34;5086872;28;20356;-73
2023/03/31 04:47:07;;;;;;;5.75;4.00;;;;;;;9.03;66.82;98514.22;5085910;28;20259;-72
2023/03/31 04:49:34;;;;;;;9.02;4.57;;;;;;;8.81;66.76;98479.50;5086767;28;20036;-73
2023/03/31 04:52:02;;;;;;;4.70;3.65;;;;;;;9.02;66.70;98516.97;5085825;28;20059;-72
2023/03/31 04:54:29;;;;;;;5.93;4.15;;;;;;;8.97;66.76;98509.31;5086620;28;20086;-72
2023/03/31 04:56:55;;;;;;;5.55;3.58;;;;;;;8.98;66.83;98511.03;5086582;28;20041;-72
2023/03/31 04:59:24;;;;;;;6.18;3.60;;;;;;;8.97;66.84;98504.03;5085778;28;20051;-72
2023/03/31 05:01:50;;;;;;;8.77;3.95;;;;;;;8.98;66.88;98511.03;5085683;28;20208;-72
2023/03/31 05:04:17;;;;;;;6.28;4.20;;;;;;;8.95;66.93;98500.63;5086666;28;20036;-73
2023/03/31 05:06:44;;;;;;;7.03;4.03;;;;;;;8.95;66.84;98501.50;5086169;28;20048;-73
2023/03/31 05:09:11;;;;;;;5.20;3.92;;;;;;;8.96;66.84;98499.69;5085459;28;20094;-72
2023/03/31 05:11:38;;;;;;;5.57;4.38;;;;;;;8.86;66.65;98486.19;5086735;28;20051;-72
2023/03/31 05:14:04;;;;;;;7.35;4.18;;;;;;;8.60;66.79;98440.25;5086314;28;20036;-72
2023/03/31 05:16:33;;;;;;;5.88;4.38;;;;;;;8.95;66.81;98495.34;5086276;28;20050;-72
2023/03/31 05:18:59;;;;;;;11.23;4.82;;;;;;;8.94;66.94;98505.06;5085649;28;20047;-73
2023/03/31 05:21:29;;;;;;;5.15;3.92;;;;;;;8.93;66.95;98499.88;5086791;28;20040;-73
2023/03/31 05:23:56;;;;;;;6.75;4.68;;;;;;;8.93;66.98;98494.59;5085269;28;20052;-72
2023/03/31 05:26:24;;;;;;;5.25;4.65;;;;;;;8.92;66.93;98498.19;5086112;28;20055;-72
2023/03/31 05:28:51;;;;;;;6.15;4.50;;;;;;;8.92;67.01;98491.09;5085065;28;20043;-72
2023/03/31 05:31:18;;;;;;;10.00;5.82;;;;;;;8.90;67.31;98497.44;5085296;28;20315;-72
2023/03/31 05:33:46;;;;;;;6.70;5.13;;;;;;;8.89;67.27;98501.03;5086562;28;20044;-73
2023/03/31 05:36:15;;;;;;;9.27;5.28;;;;;;;8.92;67.39;98498.19;5085048;28;20056;-73
2023/03/31 05:38:43;;;;;;;6.35;4.47;;;;;;;8.74;67.41;98459.69;5085995;28;20047;-73
2023/03/31 05:41:10;;;;;;;6.78;4.55;;;;;;;8.97;67.30;98483.75;5085657;28;20048;-72
2023/03/31 05:43:38;;;;;;;7.10;4.93;;;;;;;9.00;67.25;98480.91;5085975;28;20041;-73
2023/03/31 05:46:05;;;;;;;7.75;4.57;;;;;;;9.05;67.31;98469.19;5084727;28;20052;-73
2023/03/31 05:48:32;;;;;;;9.75;4.65;;;;;;;8.91;67.16;98441.00;5086008;28;20285;-73
2023/03/31 05:51:01;;;;;;;6.53;4.85;;;;;;;9.13;67.15;98466.91;5085948;28;20048;-73
2023/03/31 05:53:27;;;;;;;7.75;4.40;;;;;;;9.17;66.96;98471.91;5085843;28;20063;-73
2023/03/31 05:55:58;;;;;;;9.05;4.70;;;;;;;9.22;66.84;98455.78;5085778;28;20040;-73
2023/03/31 05:58:25;;;;;;;8.43;5.40;;;;;;;9.26;66.85;98449.38;5085850;28;20100;-72
2023/03/31 06:01:01;;;;;;;6.20;4.22;;;;;;;9.11;66.78;98419.44;5085872;28;20277;-73
2023/03/31 06:03:28;;;;;;;4.55;3.83;;;;;;;9.15;66.38;98412.16;5085801;28;20062;-72
2023/03/31 06:05:54;;;;;;;6.43;4.30;;;;;;;9.36;66.49;98441.69;5084944;28;20048;-73
2023/03/31 06:08:23;;;;;;;5.55;3.63;;;;;;;9.39;66.31;98436.19;5085593;28;20050;-73
2023/03/31 06:10:49;;;;;;;6.00;4.72;;;;;;;9.51;66.05;98428.34;5084525;28;20115;-73
2023/03/31 06:13:16;;;;;;;4.32;3.47;;;;;;;9.67;65.70;98424.69;5085625;28;20384;-72
2023/03/31 06:15:43;;;;;;;7.38;4.22;;;;;;;9.90;65.31;98424.84;5085556;28;20233;-73
2023/03/31 06:18:10;;;;;;;4.70;4.18;;;;;;;10.20;64.61;98421.09;5085590;28;20055;-73
2023/03/31 06:20:37;;;;;;;6.63;3.78;;;;;;;10.36;64.04;98411.13;5084379;28;20338;-73
2023/03/31 06:23:04;;;;;;;6.82;3.30;;;;;;;10.55;63.48;98414.19;5085895;28;20044;-73
2023/03/31 06:25:32;;;;;;;5.75;3.20;;;;;;;10.81;62.48;98409.75;5085546;28;20045;-73
2023/03/31 06:27:58;;;;;;;5.97;3.35;;;;;;;10.95;61.99;98407.91;5085278;28;20037;-73
2023/03/31 06:30:25;;;;;;;6.85;3.63;;;;;;;11.03;61.67;98408.22;5085039;28;20044;-72
2023/03/31 06:32:52;;;;;;;4.63;3.08;;;;;;;10.96;61.33;98364.53;5085404;28;20044;-70
2023/03/31 06:35:19;;;;;;;4.43;3.17;;;;;;;11.04;61.07;98370.13;5085087;28;20041;-70
2023/03/31 06:37:45;;;;;;;5.90;3.20;;;;;;;11.34;61.06;98390.91;5085135;28;20032;-72
2023/03/31 06:40:13;;;;;;;4.70;3.00;;;;;;;11.51;60.78;98394.03;5085004;28;20044;-73
2023/03/31 06:42:41;;;;;;;5.65;4.13;;;;;;;11.49;60.44;98357.94;5084240;28;20047;-73
2023/03/31 06:45:09;;;;;;;6.70;3.70;;;;;;;11.62;59.89;98340.16;5084651;28;20040;-73
2023/03/31 06:47:37;;;;;;;6.93;4.25;;;;;;;11.93;59.72;98386.44;5085134;28;20047;-73
2023/03/31 06:50:05;;;;;;;6.22;3.72;;;;;;;11.82;60.22;98379.31;5084282;28;20098;-73
2023/03/31 06:52:33;;;;;;;6.45;3.83;;;;;;;11.82;60.67;98383.75;5085231;28;20343;-74
2023/03/31 06:55:00;;;;;;;5.95;4.10;;;;;;;11.77;60.68;98383.25;5084092;28;20048;-73
2023/03/31 06:57:27;;;;;;;5.97;3.95;;;;;;;11.74;60.82;98372.88;5084837;28;20056;-73
2023/03/31 06:59:55;;;;;;;6.93;4.68;;;;;;;11.72;61.01;98370.34;5085083;28;20051;-73
2023/03/31 07:02:22;;;;;;;6.85;4.20;;;;;;;11.71;61.13;98360.69;5085156;28;20193;-73
2023/03/31 07:04:49;;;;;;;9.40;4.80;;;;;;;11.71;60.73;98362.50;5086094;28;20055;-73
2023/03/31 07:07:16;;;;;;;11.00;4.63;;;;;;;11.49;60.99;98315.50;5088638;28;20037;-73
2023/03/31 07:09:42;;;;;;;9.02;6.03;;;;;;;11.07;60.96;98250.59;5088958;28;20051;-73
2023/03/31 07:12:09;;;;;;;8.07;5.43;;;;;;;11.60;60.81;98285.50;5087731;28;20050;-73
2023/03/31 07:14:36;;;;;;;9.85;5.00;;;;;;;12.38;60.54;98341.44;5088582;28;20037;-74
2023/03/31 07:17:04;;;;;;;8.23;5.18;;;;;;;12.46;59.75;98333.69;5088707;28;20111;-72
2023/03/31 07:19:31;;;;;;;7.75;4.75;;;;;;;12.42;59.50;98335.75;5088818;28;20059;-73
2023/03/31 07:21:58;;;;;;;7.07;4.72;;;;;;;12.39;59.48;98330.69;5087736;28;20040;-73
2023/03/31 07:24:25;;;;;;;7.50;4.85;;;;;;;12.16;59.57;98299.72;5088602;28;20047;-73
2023/03/31 07:26:52;;;;;;;9.18;5.28;;;;;;;12.30;59.57;98330.56;5088637;28;20090;-73
2023/03/31 07:29:19;;;;;;;6.93;4.05;;;;;;;12.26;59.35;98335.28;5088094;28;20044;-74
2023/03/31 07:31:47;;;;;;;8.88;4.47;;;;;;;12.24;59.51;98321.25;5088102;28;20037;-74
2023/03/31 07:34:15;;;;;;;8.60;4.15;;;;;;;12.23;59.55;98319.56;5088328;28;20104;-73
2023/03/31 07:36:42;;;;;;;6.63;4.85;;;;;;;12.24;59.70;98307.97;5088048;28;20036;-71
2023/03/31 07:39:09;;;;;;;6.03;4.25;;;;;;;12.21;59.47;98296.75;5088037;28;20316;-71
2023/03/31 07:41:36;;;;;;;5.82;4.47;;;;;;;12.01;59.52;98263.75;5087918;28;20045;-71
2023/03/31 07:44:03;;;;;;;8.43;4.65;;;;;;;11.84;59.52;98246.44;5088562;28;20051;-71
2023/03/31 07:46:30;;;;;;;6.80;4.75;;;;;;;12.15;59.85;98287.41;5087104;28;20033;-71
2023/03/31 07:49:00;;;;;;;8.77;5.03;;;;;;;12.12;59.85;98288.50;5088156;28;20060;-73
2023/03/31 07:51:29;;;;;;;8.02;5.43;;;;;;;11.93;59.81;98253.69;5087796;28;20044;-73
2023/03/31 07:53:56;;;;;;;8.75;5.18;;;;;;;12.13;59.94;98281.38;5087334;28;20032;-73
2023/03/31 07:56:24;;;;;;;11.23;5.28;;;;;;;12.35;59.70;98277.91;5088112;28;20067;-73
2023/03/31 07:58:52;;;;;;;8.85;4.97;;;;;;;12.31;59.37;98237.47;5088287;28;20040;-73
2023/03/31 08:01:24;;;;;;;8.98;5.38;;;;;;;12.70;58.67;98275.09;5088178;28;20041;-73
2023/03/31 08:03:53;;;;;;;8.80;5.50;;;;;;;12.78;59.03;98270.84;5087673;28;20045;-73
2023/03/31 08:06:21;;;;;;;10.73;5.07;;;;;;;12.88;58.36;98272.75;5086543;28;20036;-73
2023/03/31 08:08:50;;;;;;;8.85;5.53;;;;;;;12.82;58.55;98272.28;5087631;28;20041;-74
2023/03/31 08:11:17;;;;;;;6.53;4.40;;;;;;;12.84;58.15;98264.19;5087678;28;20054;-73
2023/03/31 08:13:44;;;;;;;7.60;4.07;;;;;;;12.86;58.43;98251.59;5087269;28;20316;-73
2023/03/31 08:16:11;;;;;;;7.40;3.85;;;;;;;12.74;58.40;98236.66;5086229;28;20036;-73
2023/03/31 08:18:37;;;;;;;5.47;3.30;;;;;;;12.77;57.75;98255.00;5087854;28;20045;-73
2023/03/31 08:21:04;;;;;;;6.05;3.55;;;;;;;12.75;57.68;98248.97;5087271;28;20051;-73
2023/03/31 08:23:31;;;;;;;8.68;6.38;;;;;;;12.69;57.93;98241.50;5086971;28;20058;-74
2023/03/31 08:26:10;;;;;;;6.10;3.95;;;;;;;11.81;56.38;98093.56;5087444;28;20208;-74
2023/03/31 08:28:36;;;;;;;6.00;4.13;;;;;;;12.67;57.93;98228.31;5086911;28;20219;-74
2023/03/31 08:31:05;;;;;;;5.13;3.88;;;;;;;12.69;57.65;98230.84;5087294;28;20059;-74
2023/03/31 08:33:32;;;;;;;8.48;4.45;;;;;;;12.05;57.77;98141.22;5087118;28;20036;-73
2023/03/31 08:36:02;;;;;;;5.88;3.70;;;;;;;12.64;57.24;98219.75;5087224;28;20029;-73
2023/03/31 08:38:29;;;;;;;10.02;4.45;;;;;;;12.61;57.77;98212.88;5087371;28;20044;-73
2023/03/31 08:40:59;;;;;;;7.10;3.45;;;;;;;12.61;57.35;98209.38;5087190;28;20236;-71
2023/03/31 08:43:33;;;;;;;7.45;3.35;;;;;;;12.62;57.58;98209.25;5087344;28;20040;-73
2023/03/31 08:46:02;;;;;;;8.60;3.42;;;;;;;12.63;57.30;98202.13;5086886;28;20120;-73
2023/03/31 08:48:32;;;;;;;5.40;3.30;;;;;;;12.64;57.33;98198.50;5087363;28;20086;-74
2023/03/31 08:51:06;;;;;;;6.30;3.88;;;;;;;12.44;57.07;98168.22;5086677;28;20047;-73
2023/03/31 08:53:39;;;;;;;6.15;3.70;;;;;;;12.62;57.16;98189.81;5085892;28;20211;-73
2023/03/31 08:56:14;;;;;;;5.97;3.10;;;;;;;12.61;57.69;98178.31;5085764;28;20044;-74
2023/03/31 08:58:44;;;;;;;5.28;3.58;;;;;;;11.94;57.47;98066.88;5086855;28;20066;-74
2023/03/31 09:01:23;;;;;;;5.90;3.38;;;;;;;12.62;57.22;98158.75;5085594;28;20311;-73
2023/03/31 09:04:07;;;;;;;6.57;3.13;;;;;;;12.09;57.36;98063.00;5085567;28;20036;-74
2023/03/31 09:06:38;;;;;;;5.60;3.13;;;;;;;12.07;57.92;98088.00;5086201;28;20276;-73
2023/03/31 09:09:10;;;;;;;7.05;3.60;;;;;;;12.48;57.67;98125.34;5086497;28;20040;-73
2023/03/31 09:11:44;;;;;;;6.93;4.03;;;;;;;12.66;57.11;98146.91;5086745;28;20046;-73
2023/03/31 09:14:29;;;;;;;9.82;3.75;;;;;;;12.64;56.73;98150.66;5086267;28;20180;-73
2023/03/31 09:17:10;;;;;;;8.02;3.30;;;;;;;12.64;57.26;98159.47;5086626;28;20036;-74
2023/03/31 09:19:41;;;;;;;7.03;3.33;;;;;;;12.48;57.63;98125.34;5085666;28;20044;-73
2023/03/31 09:22:16;;;;;;;6.28;3.70;;;;;;;12.47;56.39;98121.00;5086204;28;20066;-73
2023/03/31 09:24:47;;;;;;;;;;;;;;;12.60;56.25;98150.06;5085737;28;20048;-74
2023/03/31 09:27:15;;;;;;;4.78;2.90;;;;;;;12.61;57.56;98142.94;5084831;28;20061;-74
2023/03/31 09:29:47;;;;;;;6.40;3.45;;;;;;;12.63;57.48;98138.34;5085006;28;20037;-73
2023/03/31 09:32:16;;;;;;;6.13;3.40;;;;;;;12.67;57.49;98131.78;5085961;28;20184;-74
2023/03/31 09:34:45;;;;;;;4.93;3.45;;;;;;;12.71;57.60;98133.22;5085371;28;20036;-74
2023/03/31 09:37:13;;;;;;;5.53;3.83;;;;;;;12.72;57.43;98121.63;5085818;28;20045;-73
2023/03/31 09:39:40;;;;;;;6.68;3.60;;;;;;;12.73;57.47;98118.84;5085704;28;20123;-73
2023/03/31 09:42:10;;;;;;;6.47;3.72;;;;;;;12.76;57.26;98109.75;5085552;28;20056;-73
2023/03/31 09:44:39;;;;;;;6.43;4.03;;;;;;;12.79;57.49;98105.03;5084884;28;20045;-74
2023/03/31 09:47:15;;;;;;;6.65;3.78;;;;;;;12.82;56.96;98106.59;5085443;28;20040;-73
2023/03/31 09:49:45;;;;;;;6.47;3.72;;;;;;;12.86;57.04;98101.84;5085975;28;20068;-73
2023/03/31 09:52:18;;;;;;;5.75;3.80;;;;;;;12.88;57.17;98090.13;5085876;28;20037;-73
2023/03/31 09:54:50;;;;;;;5.70;3.58;;;;;;;12.91;56.94;98084.53;5084458;28;20044;-72
2023/03/31 09:57:25;;;;;;;7.07;3.67;;;;;;;12.84;56.10;98070.91;5085174;28;20085;-72
2023/03/31 09:59:53;;;;;;;8.60;4.35;;;;;;;12.93;56.96;98076.44;5085639;28;20096;-73
2023/03/31 10:02:39;;;;;;;5.28;3.85;;;;;;;12.92;55.61;98080.91;5085515;28;20162;-73
2023/03/31 10:05:08;;;;;;;5.57;4.00;;;;;;;12.93;56.87;98074.63;5085002;28;20048;-73
2023/03/31 10:07:35;;;;;;;7.13;4.25;;;;;;;12.98;56.88;98068.91;5084482;28;20051;-73
2023/03/31 10:10:03;;;;;;;7.80;4.18;;;;;;;12.46;56.49;97972.31;5085216;28;20051;-72
2023/03/31 10:12:31;;;;;;;6.65;5.53;;;;;;;13.05;56.61;98062.94;5084990;28;20041;-73
2023/03/31 10:15:17;;;;;;;7.10;4.05;;;;;;;13.04;55.72;98053.25;5085293;28;20052;-73
2023/03/31 10:17:47;;;;;;;7.82;4.22;;;;;;;13.09;56.09;98064.34;5085558;28;20094;-73
2023/03/31 10:20:32;;;;;;;4.95;3.53;;;;;;;13.11;54.88;98057.09;5084065;28;20258;-72
2023/03/31 10:23:04;;;;;;;7.85;4.18;;;;;;;13.10;55.66;98058.06;5084321;28;20040;-72
2023/03/31 10:25:33;;;;;;;4.95;3.63;;;;;;;12.40;55.93;97928.50;5085121;28;20032;-73
2023/03/31 10:28:02;;;;;;;10.23;4.47;;;;;;;13.12;56.11;98041.97;5085201;28;20047;-73
2023/03/31 10:30:34;;;;;;;7.63;4.13;;;;;;;12.74;55.83;97965.50;5085666;28;20059;-72
2023/03/31 10:33:06;;;;;;;6.03;4.47;;;;;;;13.19;54.92;98023.66;5085461;28;20071;-72
2023/03/31 10:35:34;;;;;;;6.20;4.57;;;;;;;13.22;55.67;98029.56;5085105;28;20054;-73
2023/03/31 10:38:06;;;;;;;6.55;4.38;;;;;;;13.22;55.09;98023.38;5085052;28;20045;-73
2023/03/31 10:40:35;;;;;;;6.18;4.07;;;;;;;13.04;55.57;97994.75;5086566;28;20362;-72
2023/03/31 10:43:09;;;;;;;7.80;4.43;;;;;;;13.14;54.97;98000.13;5089038;28;20196;-74
2023/03/31 10:45:41;;;;;;;6.23;3.80;;;;;;;13.35;55.05;98027.50;5088255;28;20054;-73
2023/03/31 10:48:18;;;;;;;4.72;4.10;;;;;;;13.40;53.88;98032.44;5088994;28;20387;-73
2023/03/31 10:50:45;;;;;;;5.53;3.40;;;;;;;13.42;54.98;98042.00;5088975;28;20033;-73
2023/03/31 10:53:13;;;;;;;5.63;4.00;;;;;;;13.09;54.61;97986.38;5088690;28;20048;-73
2023/03/31 10:55:52;;;;;;;7.63;4.28;;;;;;;13.46;54.02;98059.38;5089098;28;20033;-73
2023/03/31 10:58:29;;;;;;;6.65;3.90;;;;;;;13.47;54.05;98057.56;5088944;28;20303;-73
2023/03/31 11:01:06;;;;;;;4.53;3.63;;;;;;;13.47;53.86;98052.25;5089041;28;20051;-73
2023/03/31 11:03:48;;;;;;;5.88;4.03;;;;;;;13.47;53.54;98038.94;5088831;28;20033;-73
2023/03/31 11:06:21;;;;;;;4.75;4.10;;;;;;;13.01;54.44;97963.09;5088931;28;20062;-73
2023/03/31 11:08:58;;;;;;;7.97;4.50;;;;;;;13.48;54.35;98025.50;5088850;28;20048;-73
2023/03/31 11:11:48;;;;;;;7.15;4.80;;;;;;;13.50;53.46;98054.63;5087590;28;20055;-73
2023/03/31 11:14:25;;;;;;;5.65;4.20;;;;;;;13.53;53.81;98048.19;5088588;28;20096;-72
2023/03/31 11:17:00;;;;;;;6.32;4.35;;;;;;;13.54;53.99;98028.59;5088330;28;20052;-73
2023/03/31 11:19:41;;;;;;;7.28;4.65;;;;;;;13.55;52.89;98009.81;5088483;28;20304;-72
2023/03/31 11:22:16;;;;;;;7.43;4.72;;;;;;;13.37;53.38;97969.66;5088573;28;20037;-73
2023/03/31 11:25:19;;;;;;;5.75;4.25;;;;;;;13.37;53.12;97947.53;5088715;28;20296;-72
2023/03/31 11:28:11;;;;;;;7.60;4.15;;;;;;;13.46;52.96;97942.28;5030165;28;20059;-74
2023/03/31 11:30:43;;;;;;;4.63;3.67;;;;;;;13.48;53.83;97926.16;5088777;28;20052;-73
2023/03/31 11:33:35;;;;;;;6.15;4.20;;;;;;;13.68;52.59;97909.25;5087449;28;20041;-74
2023/03/31 11:36:17;;;;;;;9.68;4.68;;;;;;;13.91;51.59;97907.16;5087530;28;20045;-73
2023/03/31 11:38:58;;;;;;;9.18;3.67;;;;;;;13.96;50.82;97891.59;5088251;28;20192;-73
2023/03/31 11:41:32;;;;;;;4.75;3.47;;;;;;;14.03;51.75;97892.72;5088038;28;20056;-72
2023/03/31 11:44:03;;;;;;;6.20;4.20;;;;;;;14.17;51.35;97902.09;5088502;28;20171;-73
2023/03/31 11:46:39;;;;;;;8.48;5.18;;;;;;;14.32;50.95;97895.31;5088281;28;20044;-70
2023/03/31 11:49:15;;;;;;;8.60;5.70;;;;;;;14.48;50.61;97872.56;5087875;28;20040;-70
2023/03/31 11:51:50;;;;;;;7.28;4.88;;;;;;;14.56;50.28;97857.53;5086988;28;20036;-70
2023/03/31 11:54:24;;;;;;;8.50;5.53;;;;;;;14.16;50.83;97777.84;5088178;28;20199;-70
2023/03/31 11:56:53;;;;;;;12.02;5.53;;;;;;;14.42;50.82;97784.19;5070686;28;20040;-70